Terminal Aerodrome Forecast
Issued by NWS

Home | Current Version | Previous Version | Text Only | Print | Product List | Glossary On
Versions: 1 2 3 4 5 6 7 8 9 10 11 12 13 14 15 16 17 18
000
FTUS43 KGRB 291720
TAFRHI
TAF
KRHI 291720Z 2918/3018 09007KT P6SM BKN200
     FM292200 11006KT P6SM OVC100
     FM300500 10005KT P6SM SCT040 BKN070
     FM301000 07006KT P6SM BKN035 PROB30 3010/3014 4SM -SN BKN025
     FM301500 09009G16KT P6SM BKN045=

USA.gov is the U.S. government's official web portal to all federal, state and local government web resources and services.